sensor_id;sensor_type;location;lat;lon;timestamp;P1;durP1;ratioP1;P2;durP2;ratioP2
48859;SDS011;34679;51.436;-2.518;2023-10-19T00:02:06;6.95;;;1.80;;
48859;SDS011;34679;51.436;-2.518;2023-10-19T00:04:32;7.70;;;0.77;;
48859;SDS011;34679;51.436;-2.518;2023-10-19T00:07:00;7.35;;;0.65;;
48859;SDS011;34679;51.436;-2.518;2023-10-19T00:09:26;10.65;;;1.23;;
48859;SDS011;34679;51.436;-2.518;2023-10-19T00:12:00;4.60;;;0.88;;
48859;SDS011;34679;51.436;-2.518;2023-10-19T00:14:27;5.63;;;0.70;;
48859;SDS011;34679;51.436;-2.518;2023-10-19T00:16:53;13.82;;;1.25;;
48859;SDS011;34679;51.436;-2.518;2023-10-19T00:19:24;9.45;;;1.98;;
48859;SDS011;34679;51.436;-2.518;2023-10-19T00:21:53;6.97;;;0.80;;
48859;SDS011;34679;51.436;-2.518;2023-10-19T00:24:33;5.25;;;1.35;;
48859;SDS011;34679;51.436;-2.518;2023-10-19T00:27:00;5.97;;;0.90;;
48859;SDS011;34679;51.436;-2.518;2023-10-19T00:29:31;6.45;;;0.90;;
48859;SDS011;34679;51.436;-2.518;2023-10-19T00:31:58;11.55;;;1.05;;
48859;SDS011;34679;51.436;-2.518;2023-10-19T00:34:25;5.22;;;1.08;;
48859;SDS011;34679;51.436;-2.518;2023-10-19T00:36:54;12.30;;;1.25;;
48859;SDS011;34679;51.436;-2.518;2023-10-19T00:39:32;14.50;;;1.23;;
48859;SDS011;34679;51.436;-2.518;2023-10-19T00:42:15;9.35;;;0.98;;
48859;SDS011;34679;51.436;-2.518;2023-10-19T00:44:45;12.93;;;1.08;;
48859;SDS011;34679;51.436;-2.518;2023-10-19T00:47:15;8.98;;;0.93;;
48859;SDS011;34679;51.436;-2.518;2023-10-19T00:49:45;12.50;;;1.35;;
48859;SDS011;34679;51.436;-2.518;2023-10-19T00:52:12;9.30;;;1.35;;
48859;SDS011;34679;51.436;-2.518;2023-10-19T00:54:48;8.25;;;1.50;;
48859;SDS011;34679;51.436;-2.518;2023-10-19T00:57:20;7.68;;;1.15;;
48859;SDS011;34679;51.436;-2.518;2023-10-19T00:59:46;6.70;;;1.25;;
48859;SDS011;34679;51.436;-2.518;2023-10-19T01:02:19;9.75;;;0.90;;
48859;SDS011;34679;51.436;-2.518;2023-10-19T01:04:50;9.98;;;1.15;;
48859;SDS011;34679;51.436;-2.518;2023-10-19T01:07:21;10.38;;;2.08;;
48859;SDS011;34679;51.436;-2.518;2023-10-19T01:10:02;7.53;;;1.10;;
48859;SDS011;34679;51.436;-2.518;2023-10-19T01:12:37;9.23;;;1.42;;
48859;SDS011;34679;51.436;-2.518;2023-10-19T01:23:04;8.98;;;1.90;;
48859;SDS011;34679;51.436;-2.518;2023-10-19T01:25:54;5.43;;;0.93;;
48859;SDS011;34679;51.436;-2.518;2023-10-19T01:28:23;6.97;;;1.10;;
48859;SDS011;34679;51.436;-2.518;2023-10-19T01:31:06;5.18;;;0.80;;
48859;SDS011;34679;51.436;-2.518;2023-10-19T01:33:32;9.27;;;0.80;;
48859;SDS011;34679;51.436;-2.518;2023-10-19T01:36:01;7.25;;;0.85;;
48859;SDS011;34679;51.436;-2.518;2023-10-19T01:38:36;8.30;;;1.02;;
48859;SDS011;34679;51.436;-2.518;2023-10-19T01:41:07;16.65;;;2.22;;
48859;SDS011;34679;51.436;-2.518;2023-10-19T01:43:43;10.23;;;0.80;;
48859;SDS011;34679;51.436;-2.518;2023-10-19T01:46:10;4.65;;;0.60;;
48859;SDS011;34679;51.436;-2.518;2023-10-19T01:48:40;3.90;;;0.55;;
48859;SDS011;34679;51.436;-2.518;2023-10-19T01:51:08;7.00;;;0.98;;
48859;SDS011;34679;51.436;-2.518;2023-10-19T01:53:36;4.18;;;0.75;;
48859;SDS011;34679;51.436;-2.518;2023-10-19T01:56:05;4.82;;;0.90;;
48859;SDS011;34679;51.436;-2.518;2023-10-19T01:58:34;5.15;;;0.85;;
48859;SDS011;34679;51.436;-2.518;2023-10-19T02:01:05;8.35;;;0.90;;
48859;SDS011;34679;51.436;-2.518;2023-10-19T02:03:34;5.45;;;0.90;;
48859;SDS011;34679;51.436;-2.518;2023-10-19T02:06:00;9.23;;;1.17;;
48859;SDS011;34679;51.436;-2.518;2023-10-19T02:09:00;2.78;;;0.82;;
48859;SDS011;34679;51.436;-2.518;2023-10-19T02:11:34;9.00;;;1.40;;
48859;SDS011;34679;51.436;-2.518;2023-10-19T02:14:03;9.45;;;1.45;;
48859;SDS011;34679;51.436;-2.518;2023-10-19T02:16:38;6.95;;;0.95;;
48859;SDS011;34679;51.436;-2.518;2023-10-19T02:19:06;12.23;;;1.20;;
48859;SDS011;34679;51.436;-2.518;2023-10-19T02:21:32;9.75;;;1.55;;
48859;SDS011;34679;51.436;-2.518;2023-10-19T02:24:03;12.27;;;1.83;;
48859;SDS011;34679;51.436;-2.518;2023-10-19T02:26:29;11.07;;;1.60;;
48859;SDS011;34679;51.436;-2.518;2023-10-19T02:28:56;13.98;;;1.80;;
48859;SDS011;34679;51.436;-2.518;2023-10-19T02:31:23;9.80;;;2.30;;
48859;SDS011;34679;51.436;-2.518;2023-10-19T02:33:50;13.20;;;1.80;;
48859;SDS011;34679;51.436;-2.518;2023-10-19T02:36:18;12.95;;;2.63;;
48859;SDS011;34679;51.436;-2.518;2023-10-19T02:38:45;11.38;;;2.17;;
48859;SDS011;34679;51.436;-2.518;2023-10-19T02:41:18;13.75;;;1.30;;
48859;SDS011;34679;51.436;-2.518;2023-10-19T02:43:46;12.25;;;1.80;;
48859;SDS011;34679;51.436;-2.518;2023-10-19T02:46:16;9.73;;;1.52;;
48859;SDS011;34679;51.436;-2.518;2023-10-19T02:48:45;8.77;;;2.15;;
48859;SDS011;34679;51.436;-2.518;2023-10-19T02:51:15;12.30;;;1.93;;
48859;SDS011;34679;51.436;-2.518;2023-10-19T02:53:40;18.48;;;2.20;;
48859;SDS011;34679;51.436;-2.518;2023-10-19T02:56:13;15.93;;;2.10;;
48859;SDS011;34679;51.436;-2.518;2023-10-19T02:58:49;16.63;;;2.05;;
48859;SDS011;34679;51.436;-2.518;2023-10-19T03:01:16;17.27;;;1.90;;
48859;SDS011;34679;51.436;-2.518;2023-10-19T03:03:46;30.20;;;4.55;;
48859;SDS011;34679;51.436;-2.518;2023-10-19T03:06:14;24.08;;;2.40;;
48859;SDS011;34679;51.436;-2.518;2023-10-19T03:08:44;19.75;;;2.78;;
48859;SDS011;34679;51.436;-2.518;2023-10-19T03:11:20;20.65;;;2.00;;
48859;SDS011;34679;51.436;-2.518;2023-10-19T03:13:46;21.17;;;3.75;;
48859;SDS011;34679;51.436;-2.518;2023-10-19T03:16:15;29.13;;;3.03;;
48859;SDS011;34679;51.436;-2.518;2023-10-19T03:18:42;24.02;;;2.50;;
48859;SDS011;34679;51.436;-2.518;2023-10-19T03:21:08;25.23;;;2.83;;
48859;SDS011;34679;51.436;-2.518;2023-10-19T03:23:36;20.88;;;2.28;;
48859;SDS011;34679;51.436;-2.518;2023-10-19T03:26:02;21.05;;;4.30;;
48859;SDS011;34679;51.436;-2.518;2023-10-19T03:28:47;28.05;;;3.65;;
48859;SDS011;34679;51.436;-2.518;2023-10-19T03:31:13;20.63;;;4.97;;
48859;SDS011;34679;51.436;-2.518;2023-10-19T03:33:45;21.53;;;4.40;;
48859;SDS011;34679;51.436;-2.518;2023-10-19T03:36:23;18.98;;;3.15;;
48859;SDS011;34679;51.436;-2.518;2023-10-19T03:38:50;41.42;;;4.45;;
48859;SDS011;34679;51.436;-2.518;2023-10-19T03:41:17;39.08;;;4.25;;
48859;SDS011;34679;51.436;-2.518;2023-10-19T03:43:47;33.78;;;4.13;;
48859;SDS011;34679;51.436;-2.518;2023-10-19T03:46:14;19.80;;;3.42;;
48859;SDS011;34679;51.436;-2.518;2023-10-19T03:49:02;28.73;;;3.20;;
48859;SDS011;34679;51.436;-2.518;2023-10-19T03:51:38;31.63;;;3.50;;
48859;SDS011;34679;51.436;-2.518;2023-10-19T03:54:23;29.75;;;4.93;;
48859;SDS011;34679;51.436;-2.518;2023-10-19T03:56:50;28.75;;;2.95;;
48859;SDS011;34679;51.436;-2.518;2023-10-19T03:59:17;24.48;;;2.83;;
48859;SDS011;34679;51.436;-2.518;2023-10-19T04:01:43;32.90;;;3.80;;
48859;SDS011;34679;51.436;-2.518;2023-10-19T04:04:09;35.08;;;3.08;;
48859;SDS011;34679;51.436;-2.518;2023-10-19T04:06:36;24.73;;;3.30;;
48859;SDS011;34679;51.436;-2.518;2023-10-19T04:09:05;37.78;;;3.85;;
48859;SDS011;34679;51.436;-2.518;2023-10-19T04:11:31;24.38;;;3.33;;
48859;SDS011;34679;51.436;-2.518;2023-10-19T04:14:01;40.65;;;3.28;;
48859;SDS011;34679;51.436;-2.518;2023-10-19T04:16:29;35.97;;;3.63;;
48859;SDS011;34679;51.436;-2.518;2023-10-19T04:18:56;27.20;;;3.17;;
48859;SDS011;34679;51.436;-2.518;2023-10-19T04:21:23;29.23;;;3.42;;
48859;SDS011;34679;51.436;-2.518;2023-10-19T04:23:49;22.35;;;3.05;;
48859;SDS011;34679;51.436;-2.518;2023-10-19T04:26:14;15.63;;;2.20;;
48859;SDS011;34679;51.436;-2.518;2023-10-19T04:28:43;21.92;;;2.70;;
48859;SDS011;34679;51.436;-2.518;2023-10-19T04:31:18;14.35;;;1.65;;
48859;SDS011;34679;51.436;-2.518;2023-10-19T04:33:44;10.43;;;1.67;;
48859;SDS011;34679;51.436;-2.518;2023-10-19T04:36:14;10.23;;;1.40;;
48859;SDS011;34679;51.436;-2.518;2023-10-19T04:38:40;6.70;;;1.15;;
48859;SDS011;34679;51.436;-2.518;2023-10-19T04:41:07;15.32;;;2.33;;
48859;SDS011;34679;51.436;-2.518;2023-10-19T04:43:34;15.50;;;2.83;;
48859;SDS011;34679;51.436;-2.518;2023-10-19T04:46:04;16.75;;;1.50;;
48859;SDS011;34679;51.436;-2.518;2023-10-19T04:48:36;24.90;;;2.92;;
48859;SDS011;34679;51.436;-2.518;2023-10-19T04:51:04;16.05;;;1.90;;
48859;SDS011;34679;51.436;-2.518;2023-10-19T04:53:36;13.30;;;1.73;;
48859;SDS011;34679;51.436;-2.518;2023-10-19T04:56:05;10.95;;;1.52;;
48859;SDS011;34679;51.436;-2.518;2023-10-19T04:58:34;15.25;;;3.30;;
48859;SDS011;34679;51.436;-2.518;2023-10-19T05:01:00;13.48;;;1.52;;
48859;SDS011;34679;51.436;-2.518;2023-10-19T05:03:28;24.98;;;2.65;;
48859;SDS011;34679;51.436;-2.518;2023-10-19T05:05:54;22.42;;;2.60;;
48859;SDS011;34679;51.436;-2.518;2023-10-19T05:08:22;21.27;;;2.63;;
48859;SDS011;34679;51.436;-2.518;2023-10-19T05:10:50;22.23;;;2.47;;
48859;SDS011;34679;51.436;-2.518;2023-10-19T05:13:18;15.77;;;1.85;;
48859;SDS011;34679;51.436;-2.518;2023-10-19T05:15:44;23.13;;;3.17;;
48859;SDS011;34679;51.436;-2.518;2023-10-19T05:18:10;23.13;;;1.90;;
48859;SDS011;34679;51.436;-2.518;2023-10-19T05:20:35;20.42;;;2.22;;
48859;SDS011;34679;51.436;-2.518;2023-10-19T05:23:05;21.67;;;2.28;;
48859;SDS011;34679;51.436;-2.518;2023-10-19T05:25:32;21.30;;;1.90;;
48859;SDS011;34679;51.436;-2.518;2023-10-19T05:27:57;16.10;;;2.25;;
48859;SDS011;34679;51.436;-2.518;2023-10-19T05:30:24;18.73;;;2.63;;
48859;SDS011;34679;51.436;-2.518;2023-10-19T05:32:50;21.63;;;2.67;;
48859;SDS011;34679;51.436;-2.518;2023-10-19T05:35:16;34.42;;;3.85;;
48859;SDS011;34679;51.436;-2.518;2023-10-19T05:37:48;34.72;;;3.25;;
48859;SDS011;34679;51.436;-2.518;2023-10-19T05:40:14;32.05;;;3.78;;
48859;SDS011;34679;51.436;-2.518;2023-10-19T05:42:41;45.15;;;4.63;;
48859;SDS011;34679;51.436;-2.518;2023-10-19T05:45:06;36.38;;;3.53;;
48859;SDS011;34679;51.436;-2.518;2023-10-19T05:47:38;38.50;;;4.97;;
48859;SDS011;34679;51.436;-2.518;2023-10-19T05:50:04;33.38;;;3.20;;
48859;SDS011;34679;51.436;-2.518;2023-10-19T05:52:30;30.95;;;3.72;;
48859;SDS011;34679;51.436;-2.518;2023-10-19T05:54:55;40.05;;;4.13;;
48859;SDS011;34679;51.436;-2.518;2023-10-19T05:57:22;39.90;;;4.50;;
48859;SDS011;34679;51.436;-2.518;2023-10-19T05:59:49;34.28;;;5.15;;
48859;SDS011;34679;51.436;-2.518;2023-10-19T06:02:15;37.28;;;4.68;;
48859;SDS011;34679;51.436;-2.518;2023-10-19T06:04:41;38.55;;;4.20;;
48859;SDS011;34679;51.436;-2.518;2023-10-19T06:07:07;50.17;;;6.65;;
48859;SDS011;34679;51.436;-2.518;2023-10-19T06:09:32;39.00;;;4.72;;
48859;SDS011;34679;51.436;-2.518;2023-10-19T06:11:58;39.00;;;3.92;;
48859;SDS011;34679;51.436;-2.518;2023-10-19T06:14:24;42.72;;;4.75;;
48859;SDS011;34679;51.436;-2.518;2023-10-19T06:16:49;40.20;;;3.80;;
48859;SDS011;34679;51.436;-2.518;2023-10-19T06:19:17;36.90;;;5.32;;
48859;SDS011;34679;51.436;-2.518;2023-10-19T06:21:43;42.10;;;4.65;;
48859;SDS011;34679;51.436;-2.518;2023-10-19T06:24:09;36.38;;;4.95;;
48859;SDS011;34679;51.436;-2.518;2023-10-19T06:26:39;53.10;;;4.07;;
48859;SDS011;34679;51.436;-2.518;2023-10-19T06:29:06;38.15;;;4.95;;
48859;SDS011;34679;51.436;-2.518;2023-10-19T06:31:32;39.58;;;5.13;;
48859;SDS011;34679;51.436;-2.518;2023-10-19T06:33:57;36.13;;;4.05;;
48859;SDS011;34679;51.436;-2.518;2023-10-19T06:36:25;43.53;;;5.53;;
48859;SDS011;34679;51.436;-2.518;2023-10-19T06:38:54;42.33;;;4.13;;
48859;SDS011;34679;51.436;-2.518;2023-10-19T06:41:19;34.03;;;3.72;;
48859;SDS011;34679;51.436;-2.518;2023-10-19T06:43:46;35.55;;;4.20;;
48859;SDS011;34679;51.436;-2.518;2023-10-19T06:46:12;29.73;;;3.80;;
48859;SDS011;34679;51.436;-2.518;2023-10-19T06:48:39;38.53;;;3.97;;
48859;SDS011;34679;51.436;-2.518;2023-10-19T06:51:04;42.13;;;3.97;;
48859;SDS011;34679;51.436;-2.518;2023-10-19T06:53:31;39.47;;;5.10;;
48859;SDS011;34679;51.436;-2.518;2023-10-19T06:55:58;47.80;;;6.80;;
48859;SDS011;34679;51.436;-2.518;2023-10-19T06:58:24;40.60;;;4.03;;
48859;SDS011;34679;51.436;-2.518;2023-10-19T07:00:51;53.58;;;4.60;;
48859;SDS011;34679;51.436;-2.518;2023-10-19T07:03:47;64.63;;;6.63;;
48859;SDS011;34679;51.436;-2.518;2023-10-19T07:06:12;47.85;;;5.10;;
48859;SDS011;34679;51.436;-2.518;2023-10-19T07:08:39;42.03;;;5.25;;
48859;SDS011;34679;51.436;-2.518;2023-10-19T07:11:08;44.05;;;4.75;;
48859;SDS011;34679;51.436;-2.518;2023-10-19T07:13:35;37.22;;;4.05;;
48859;SDS011;34679;51.436;-2.518;2023-10-19T07:16:00;39.88;;;4.72;;
48859;SDS011;34679;51.436;-2.518;2023-10-19T07:18:28;50.95;;;6.15;;
48859;SDS011;34679;51.436;-2.518;2023-10-19T07:20:54;36.88;;;4.68;;
48859;SDS011;34679;51.436;-2.518;2023-10-19T07:23:27;49.22;;;6.18;;
48859;SDS011;34679;51.436;-2.518;2023-10-19T07:25:53;49.38;;;6.40;;
48859;SDS011;34679;51.436;-2.518;2023-10-19T07:28:21;36.22;;;4.80;;
48859;SDS011;34679;51.436;-2.518;2023-10-19T07:30:49;46.05;;;5.05;;
48859;SDS011;34679;51.436;-2.518;2023-10-19T07:33:17;57.35;;;5.35;;
48859;SDS011;34679;51.436;-2.518;2023-10-19T07:35:44;49.20;;;5.20;;
48859;SDS011;34679;51.436;-2.518;2023-10-19T07:38:17;48.03;;;5.05;;
48859;SDS011;34679;51.436;-2.518;2023-10-19T07:40:46;44.28;;;6.53;;
48859;SDS011;34679;51.436;-2.518;2023-10-19T07:43:11;41.65;;;4.90;;
48859;SDS011;34679;51.436;-2.518;2023-10-19T07:45:37;40.85;;;4.28;;
48859;SDS011;34679;51.436;-2.518;2023-10-19T07:48:03;40.55;;;5.68;;
48859;SDS011;34679;51.436;-2.518;2023-10-19T07:50:36;40.50;;;5.28;;
48859;SDS011;34679;51.436;-2.518;2023-10-19T07:53:02;39.70;;;4.82;;
48859;SDS011;34679;51.436;-2.518;2023-10-19T07:55:29;41.95;;;5.30;;
48859;SDS011;34679;51.436;-2.518;2023-10-19T07:57:57;38.05;;;4.60;;
48859;SDS011;34679;51.436;-2.518;2023-10-19T08:00:28;40.13;;;4.40;;
48859;SDS011;34679;51.436;-2.518;2023-10-19T08:02:59;39.25;;;4.60;;
48859;SDS011;34679;51.436;-2.518;2023-10-19T08:05:25;38.38;;;4.05;;
48859;SDS011;34679;51.436;-2.518;2023-10-19T08:07:51;34.70;;;5.15;;
48859;SDS011;34679;51.436;-2.518;2023-10-19T08:10:18;36.75;;;5.38;;
48859;SDS011;34679;51.436;-2.518;2023-10-19T08:12:45;34.00;;;4.78;;
48859;SDS011;34679;51.436;-2.518;2023-10-19T08:15:12;31.98;;;4.00;;
48859;SDS011;34679;51.436;-2.518;2023-10-19T08:17:44;29.90;;;4.05;;
48859;SDS011;34679;51.436;-2.518;2023-10-19T08:20:11;37.28;;;5.78;;
48859;SDS011;34679;51.436;-2.518;2023-10-19T08:22:53;34.40;;;4.32;;
48859;SDS011;34679;51.436;-2.518;2023-10-19T08:25:22;41.00;;;5.40;;
48859;SDS011;34679;51.436;-2.518;2023-10-19T08:27:48;35.28;;;6.88;;
48859;SDS011;34679;51.436;-2.518;2023-10-19T08:30:21;31.88;;;4.65;;
48859;SDS011;34679;51.436;-2.518;2023-10-19T08:32:48;23.80;;;3.50;;
48859;SDS011;34679;51.436;-2.518;2023-10-19T08:35:14;34.47;;;4.65;;
48859;SDS011;34679;51.436;-2.518;2023-10-19T08:37:43;25.92;;;3.63;;
48859;SDS011;34679;51.436;-2.518;2023-10-19T08:40:11;17.83;;;3.33;;
48859;SDS011;34679;51.436;-2.518;2023-10-19T08:42:49;16.77;;;2.75;;
48859;SDS011;34679;51.436;-2.518;2023-10-19T08:45:15;18.20;;;2.80;;
48859;SDS011;34679;51.436;-2.518;2023-10-19T08:47:57;16.38;;;3.38;;
48859;SDS011;34679;51.436;-2.518;2023-10-19T08:50:32;15.05;;;2.83;;
48859;SDS011;34679;51.436;-2.518;2023-10-19T08:53:00;24.35;;;3.40;;
48859;SDS011;34679;51.436;-2.518;2023-10-19T08:55:30;15.30;;;3.75;;
48859;SDS011;34679;51.436;-2.518;2023-10-19T08:57:59;16.90;;;4.25;;
48859;SDS011;34679;51.436;-2.518;2023-10-19T09:00:25;17.55;;;4.15;;
48859;SDS011;34679;51.436;-2.518;2023-10-19T09:02:54;15.63;;;3.95;;
48859;SDS011;34679;51.436;-2.518;2023-10-19T09:05:24;22.25;;;4.28;;
48859;SDS011;34679;51.436;-2.518;2023-10-19T09:07:51;19.10;;;3.40;;
48859;SDS011;34679;51.436;-2.518;2023-10-19T09:13:00;18.42;;;3.55;;
48859;SDS011;34679;51.436;-2.518;2023-10-19T09:18:13;30.98;;;4.03;;
48859;SDS011;34679;51.436;-2.518;2023-10-19T09:23:21;28.88;;;5.55;;
48859;SDS011;34679;51.436;-2.518;2023-10-19T09:25:49;22.05;;;3.95;;
48859;SDS011;34679;51.436;-2.518;2023-10-19T09:28:17;21.58;;;3.80;;
48859;SDS011;34679;51.436;-2.518;2023-10-19T09:30:43;21.23;;;4.40;;
48859;SDS011;34679;51.436;-2.518;2023-10-19T09:33:11;20.83;;;3.85;;
48859;SDS011;34679;51.436;-2.518;2023-10-19T09:35:43;23.10;;;4.15;;
48859;SDS011;34679;51.436;-2.518;2023-10-19T09:38:14;19.30;;;4.20;;
48859;SDS011;34679;51.436;-2.518;2023-10-19T09:40:41;24.58;;;4.07;;
48859;SDS011;34679;51.436;-2.518;2023-10-19T09:43:08;22.50;;;3.75;;
48859;SDS011;34679;51.436;-2.518;2023-10-19T09:45:41;23.33;;;3.40;;
48859;SDS011;34679;51.436;-2.518;2023-10-19T09:48:15;29.38;;;4.25;;
48859;SDS011;34679;51.436;-2.518;2023-10-19T09:50:43;28.27;;;5.38;;
48859;SDS011;34679;51.436;-2.518;2023-10-19T09:53:23;30.38;;;4.93;;
48859;SDS011;34679;51.436;-2.518;2023-10-19T09:55:52;32.15;;;5.47;;
48859;SDS011;34679;51.436;-2.518;2023-10-19T09:58:21;24.80;;;3.88;;
48859;SDS011;34679;51.436;-2.518;2023-10-19T10:00:51;36.03;;;5.80;;
48859;SDS011;34679;51.436;-2.518;2023-10-19T10:06:08;30.70;;;4.65;;
48859;SDS011;34679;51.436;-2.518;2023-10-19T10:08:39;32.67;;;4.85;;
48859;SDS011;34679;51.436;-2.518;2023-10-19T10:11:16;36.45;;;5.43;;
48859;SDS011;34679;51.436;-2.518;2023-10-19T10:13:43;29.90;;;4.18;;
48859;SDS011;34679;51.436;-2.518;2023-10-19T10:16:16;35.35;;;5.00;;
48859;SDS011;34679;51.436;-2.518;2023-10-19T10:18:45;39.83;;;6.25;;
48859;SDS011;34679;51.436;-2.518;2023-10-19T10:21:17;35.15;;;4.70;;
48859;SDS011;34679;51.436;-2.518;2023-10-19T10:23:55;28.58;;;4.65;;
48859;SDS011;34679;51.436;-2.518;2023-10-19T10:26:26;22.02;;;3.42;;
48859;SDS011;34679;51.436;-2.518;2023-10-19T10:29:08;17.65;;;3.60;;
48859;SDS011;34679;51.436;-2.518;2023-10-19T10:31:45;33.88;;;4.05;;
48859;SDS011;34679;51.436;-2.518;2023-10-19T10:37:02;24.58;;;3.97;;
48859;SDS011;34679;51.436;-2.518;2023-10-19T10:39:36;34.20;;;4.90;;
48859;SDS011;34679;51.436;-2.518;2023-10-19T10:42:06;27.98;;;4.80;;
48859;SDS011;34679;51.436;-2.518;2023-10-19T10:47:15;24.65;;;4.68;;
48859;SDS011;34679;51.436;-2.518;2023-10-19T10:49:48;30.13;;;3.45;;
48859;SDS011;34679;51.436;-2.518;2023-10-19T10:55:09;19.70;;;4.20;;
48859;SDS011;34679;51.436;-2.518;2023-10-19T10:57:36;30.48;;;4.05;;
48859;SDS011;34679;51.436;-2.518;2023-10-19T11:02:30;21.52;;;3.75;;
48859;SDS011;34679;51.436;-2.518;2023-10-19T11:04:55;22.35;;;3.80;;
48859;SDS011;34679;51.436;-2.518;2023-10-19T11:07:21;24.02;;;4.50;;
48859;SDS011;34679;51.436;-2.518;2023-10-19T11:09:47;31.70;;;3.90;;
48859;SDS011;34679;51.436;-2.518;2023-10-19T11:12:13;26.83;;;4.75;;
48859;SDS011;34679;51.436;-2.518;2023-10-19T11:14:53;28.90;;;4.47;;
48859;SDS011;34679;51.436;-2.518;2023-10-19T11:17:20;27.90;;;5.63;;
48859;SDS011;34679;51.436;-2.518;2023-10-19T11:19:53;30.77;;;4.75;;
48859;SDS011;34679;51.436;-2.518;2023-10-19T11:22:21;21.40;;;3.60;;
48859;SDS011;34679;51.436;-2.518;2023-10-19T11:24:47;24.13;;;4.57;;
48859;SDS011;34679;51.436;-2.518;2023-10-19T11:27:21;30.30;;;4.32;;
48859;SDS011;34679;51.436;-2.518;2023-10-19T11:29:57;24.02;;;3.72;;
48859;SDS011;34679;51.436;-2.518;2023-10-19T11:32:25;29.90;;;4.30;;
48859;SDS011;34679;51.436;-2.518;2023-10-19T11:34:54;23.25;;;3.47;;
48859;SDS011;34679;51.436;-2.518;2023-10-19T11:37:20;25.95;;;3.30;;
48859;SDS011;34679;51.436;-2.518;2023-10-19T11:39:46;23.98;;;3.90;;
48859;SDS011;34679;51.436;-2.518;2023-10-19T11:42:12;22.33;;;4.40;;
48859;SDS011;34679;51.436;-2.518;2023-10-19T11:44:38;24.42;;;3.70;;
48859;SDS011;34679;51.436;-2.518;2023-10-19T11:47:04;23.60;;;4.32;;
48859;SDS011;34679;51.436;-2.518;2023-10-19T11:49:30;27.00;;;5.03;;
48859;SDS011;34679;51.436;-2.518;2023-10-19T11:51:56;21.90;;;3.80;;
48859;SDS011;34679;51.436;-2.518;2023-10-19T11:54:22;32.13;;;5.88;;
48859;SDS011;34679;51.436;-2.518;2023-10-19T11:56:48;18.88;;;3.35;;
48859;SDS011;34679;51.436;-2.518;2023-10-19T11:59:14;19.25;;;4.03;;
48859;SDS011;34679;51.436;-2.518;2023-10-19T12:01:40;25.92;;;3.58;;
48859;SDS011;34679;51.436;-2.518;2023-10-19T12:04:07;19.27;;;3.13;;
48859;SDS011;34679;51.436;-2.518;2023-10-19T12:06:34;25.98;;;3.72;;
48859;SDS011;34679;51.436;-2.518;2023-10-19T12:09:00;13.48;;;2.47;;
48859;SDS011;34679;51.436;-2.518;2023-10-19T12:11:39;16.55;;;3.22;;
48859;SDS011;34679;51.436;-2.518;2023-10-19T12:14:05;21.33;;;2.95;;
48859;SDS011;34679;51.436;-2.518;2023-10-19T12:16:36;23.58;;;3.20;;
48859;SDS011;34679;51.436;-2.518;2023-10-19T12:19:02;17.80;;;4.18;;
48859;SDS011;34679;51.436;-2.518;2023-10-19T12:21:28;10.50;;;2.28;;
48859;SDS011;34679;51.436;-2.518;2023-10-19T12:23:55;17.92;;;3.00;;
48859;SDS011;34679;51.436;-2.518;2023-10-19T12:26:22;20.00;;;3.95;;
48859;SDS011;34679;51.436;-2.518;2023-10-19T12:28:48;17.20;;;3.50;;
48859;SDS011;34679;51.436;-2.518;2023-10-19T12:31:14;12.02;;;3.13;;
48859;SDS011;34679;51.436;-2.518;2023-10-19T12:33:43;14.55;;;2.60;;
48859;SDS011;34679;51.436;-2.518;2023-10-19T12:36:10;25.08;;;3.38;;
48859;SDS011;34679;51.436;-2.518;2023-10-19T12:38:54;13.48;;;2.83;;
48859;SDS011;34679;51.436;-2.518;2023-10-19T12:41:20;22.17;;;3.33;;
48859;SDS011;34679;51.436;-2.518;2023-10-19T12:43:47;21.17;;;4.15;;
48859;SDS011;34679;51.436;-2.518;2023-10-19T12:46:13;25.17;;;4.07;;
48859;SDS011;34679;51.436;-2.518;2023-10-19T12:48:41;19.55;;;3.22;;
48859;SDS011;34679;51.436;-2.518;2023-10-19T12:51:13;18.05;;;2.97;;
48859;SDS011;34679;51.436;-2.518;2023-10-19T12:53:39;16.05;;;4.32;;
48859;SDS011;34679;51.436;-2.518;2023-10-19T12:56:05;20.08;;;3.13;;
48859;SDS011;34679;51.436;-2.518;2023-10-19T12:58:32;12.63;;;1.80;;
48859;SDS011;34679;51.436;-2.518;2023-10-19T13:00:58;14.68;;;2.95;;
48859;SDS011;34679;51.436;-2.518;2023-10-19T13:03:24;14.02;;;2.60;;
48859;SDS011;34679;51.436;-2.518;2023-10-19T13:05:56;11.75;;;2.15;;
48859;SDS011;34679;51.436;-2.518;2023-10-19T13:08:23;15.55;;;2.70;;
48859;SDS011;34679;51.436;-2.518;2023-10-19T13:10:52;20.40;;;4.03;;
48859;SDS011;34679;51.436;-2.518;2023-10-19T13:13:18;15.00;;;2.72;;
48859;SDS011;34679;51.436;-2.518;2023-10-19T13:15:47;21.25;;;2.83;;
48859;SDS011;34679;51.436;-2.518;2023-10-19T13:18:13;21.73;;;3.70;;
48859;SDS011;34679;51.436;-2.518;2023-10-19T13:20:45;17.33;;;2.85;;
48859;SDS011;34679;51.436;-2.518;2023-10-19T13:23:11;22.92;;;3.22;;
48859;SDS011;34679;51.436;-2.518;2023-10-19T13:25:37;21.77;;;3.33;;
48859;SDS011;34679;51.436;-2.518;2023-10-19T13:28:10;23.52;;;3.80;;
48859;SDS011;34679;51.436;-2.518;2023-10-19T13:30:47;22.27;;;2.90;;
48859;SDS011;34679;51.436;-2.518;2023-10-19T13:33:14;16.60;;;3.33;;
48859;SDS011;34679;51.436;-2.518;2023-10-19T13:35:41;17.83;;;3.00;;
48859;SDS011;34679;51.436;-2.518;2023-10-19T13:38:08;20.73;;;3.80;;
48859;SDS011;34679;51.436;-2.518;2023-10-19T13:40:36;26.70;;;3.72;;
48859;SDS011;34679;51.436;-2.518;2023-10-19T13:43:03;22.90;;;4.50;;
48859;SDS011;34679;51.436;-2.518;2023-10-19T13:45:36;25.38;;;3.30;;
48859;SDS011;34679;51.436;-2.518;2023-10-19T13:48:02;20.60;;;3.40;;
48859;SDS011;34679;51.436;-2.518;2023-10-19T13:50:33;10.18;;;2.92;;
48859;SDS011;34679;51.436;-2.518;2023-10-19T13:52:59;15.98;;;2.80;;
48859;SDS011;34679;51.436;-2.518;2023-10-19T13:55:26;21.50;;;3.67;;
48859;SDS011;34679;51.436;-2.518;2023-10-19T13:57:53;24.83;;;3.50;;
48859;SDS011;34679;51.436;-2.518;2023-10-19T14:00:21;13.05;;;2.72;;
48859;SDS011;34679;51.436;-2.518;2023-10-19T14:02:55;12.88;;;2.65;;
48859;SDS011;34679;51.436;-2.518;2023-10-19T14:05:22;15.80;;;3.05;;
48859;SDS011;34679;51.436;-2.518;2023-10-19T14:07:50;19.25;;;3.03;;
48859;SDS011;34679;51.436;-2.518;2023-10-19T14:10:17;15.55;;;2.92;;
48859;SDS011;34679;51.436;-2.518;2023-10-19T14:12:45;16.88;;;3.33;;
48859;SDS011;34679;51.436;-2.518;2023-10-19T14:17:38;19.17;;;3.47;;
48859;SDS011;34679;51.436;-2.518;2023-10-19T14:20:05;21.20;;;3.08;;
48859;SDS011;34679;51.436;-2.518;2023-10-19T14:22:31;20.48;;;3.38;;
48859;SDS011;34679;51.436;-2.518;2023-10-19T14:25:00;19.30;;;3.08;;
48859;SDS011;34679;51.436;-2.518;2023-10-19T14:27:26;20.00;;;3.97;;
48859;SDS011;34679;51.436;-2.518;2023-10-19T14:29:51;17.60;;;2.70;;
48859;SDS011;34679;51.436;-2.518;2023-10-19T14:32:17;15.75;;;3.10;;
48859;SDS011;34679;51.436;-2.518;2023-10-19T14:34:43;14.30;;;2.88;;
48859;SDS011;34679;51.436;-2.518;2023-10-19T14:37:09;13.23;;;2.42;;
48859;SDS011;34679;51.436;-2.518;2023-10-19T14:39:35;21.42;;;2.90;;
48859;SDS011;34679;51.436;-2.518;2023-10-19T14:42:00;18.67;;;2.92;;
48859;SDS011;34679;51.436;-2.518;2023-10-19T14:44:26;19.45;;;3.20;;
48859;SDS011;34679;51.436;-2.518;2023-10-19T14:46:52;16.40;;;2.67;;
48859;SDS011;34679;51.436;-2.518;2023-10-19T14:49:18;19.67;;;3.45;;
48859;SDS011;34679;51.436;-2.518;2023-10-19T14:51:44;14.18;;;3.05;;
48859;SDS011;34679;51.436;-2.518;2023-10-19T14:54:09;19.67;;;2.78;;
48859;SDS011;34679;51.436;-2.518;2023-10-19T14:56:36;11.40;;;2.58;;
48859;SDS011;34679;51.436;-2.518;2023-10-19T14:59:02;21.80;;;2.95;;
48859;SDS011;34679;51.436;-2.518;2023-10-19T15:01:30;13.73;;;2.60;;
48859;SDS011;34679;51.436;-2.518;2023-10-19T15:03:56;12.02;;;2.25;;
48859;SDS011;34679;51.436;-2.518;2023-10-19T15:06:22;24.33;;;3.67;;